createdAt,value
2023-01-29T00:02:21.095Z,75.05
2023-01-29T00:04:48.381Z,70.10
2023-01-29T00:07:15.837Z,69.45
2023-01-29T00:09:43.224Z,61.67
2023-01-29T00:12:10.314Z,62.63
2023-01-29T00:14:37.341Z,65.57
2023-01-29T00:17:04.403Z,57.22
2023-01-29T00:19:31.469Z,62.33
2023-01-29T00:21:58.377Z,62.88
2023-01-29T00:24:25.545Z,63.90
2023-01-29T00:26:52.652Z,56.40
2023-01-29T00:29:19.794Z,63.75
2023-01-29T00:31:47.472Z,67.28
2023-01-29T00:34:16.293Z,64.35
2023-01-29T00:36:45.557Z,61.80
2023-01-29T00:39:13.134Z,60.55
2023-01-29T00:41:58.417Z,54.67
2023-01-29T00:44:44.723Z,56.63
2023-01-29T00:47:30.193Z,53.30
2023-01-29T00:49:57.803Z,48.90
2023-01-29T00:52:25.622Z,50.30
2023-01-29T00:54:59.077Z,47.67
2023-01-29T00:57:29.923Z,51.55
2023-01-29T00:59:57.405Z,58.45
2023-01-29T01:02:44.418Z,51.60
2023-01-29T01:05:19.499Z,52.03
2023-01-29T01:07:49.621Z,53.80
2023-01-29T01:10:29.927Z,53.95
2023-01-29T01:12:58.776Z,49.25
2023-01-29T01:15:29.996Z,47.03
2023-01-29T01:18:00.493Z,48.25
2023-01-29T01:20:30.532Z,47.55
2023-01-29T01:22:58.021Z,45.78
2023-01-29T01:25:27.361Z,51.08
2023-01-29T01:30:27.559Z,45.97
2023-01-29T01:32:55.886Z,50.05
2023-01-29T01:35:23.188Z,50.47
2023-01-29T01:37:50.664Z,49.75
2023-01-29T01:40:23.547Z,46.85
2023-01-29T01:42:57.951Z,45.42
2023-01-29T01:45:30.429Z,45.30
2023-01-29T01:48:13.144Z,40.85
2023-01-29T01:50:47.334Z,45.22
2023-01-29T01:56:01.819Z,48.90
2023-01-29T01:58:44.252Z,45.08
2023-01-29T02:01:12.847Z,51.47
2023-01-29T02:04:11.350Z,46.60
2023-01-29T02:06:59.528Z,44.95
2023-01-29T02:09:38.931Z,50.25
2023-01-29T02:12:11.717Z,47.25
2023-01-29T02:14:41.289Z,43.33
2023-01-29T02:17:19.562Z,52.38
2023-01-29T02:20:07.388Z,51.10
2023-01-29T02:23:23.543Z,54.92
2023-01-29T02:26:27.973Z,53.53
2023-01-29T02:29:22.589Z,52.67
2023-01-29T02:32:32.432Z,44.63
2023-01-29T02:35:26.275Z,47.67
2023-01-29T02:38:38.660Z,46.63
2023-01-29T02:41:16.804Z,44.05
2023-01-29T02:43:54.102Z,51.53
2023-01-29T02:47:12.187Z,44.85
2023-01-29T02:49:55.673Z,47.40
2023-01-29T02:52:50.893Z,45.50
2023-01-29T02:55:26.671Z,43.60
2023-01-29T02:58:02.747Z,45.45
2023-01-29T03:00:39.806Z,42.65
2023-01-29T03:03:32.689Z,38.30
2023-01-29T03:06:12.150Z,45.17
2023-01-29T03:08:50.255Z,43.25
2023-01-29T03:11:18.272Z,49.30
2023-01-29T03:13:57.311Z,46.35
2023-01-29T03:16:40.468Z,42.60
2023-01-29T03:19:19.314Z,48.13
2023-01-29T03:21:59.089Z,46.97
2023-01-29T03:25:04.057Z,52.53
2023-01-29T03:28:00.293Z,44.75
2023-01-29T03:30:56.295Z,43.80
2023-01-29T03:33:36.578Z,49.58
2023-01-29T03:36:14.214Z,52.08
2023-01-29T03:38:41.627Z,47.05
2023-01-29T03:41:33.535Z,51.67
2023-01-29T03:44:19.307Z,46.85
2023-01-29T03:46:57.524Z,46.08
2023-01-29T03:49:32.302Z,43.67
2023-01-29T03:52:23.688Z,42.08
2023-01-29T03:55:18.313Z,42.20
2023-01-29T03:58:09.555Z,37.92
2023-01-29T04:00:45.995Z,39.95
2023-01-29T04:03:23.287Z,41.63
2023-01-29T04:06:10.669Z,39.42
2023-01-29T04:09:08.155Z,35.38
2023-01-29T04:11:45.427Z,36.58
2023-01-29T04:14:13.200Z,33.17
2023-01-29T04:16:46.204Z,38.08
2023-01-29T04:19:30.504Z,36.17
2023-01-29T04:22:07.692Z,35.60
2023-01-29T04:24:35.395Z,30.50
2023-01-29T04:27:28.316Z,32.80
2023-01-29T04:30:17.303Z,37.65
2023-01-29T04:33:04.571Z,34.38
2023-01-29T04:36:08.937Z,27.85
2023-01-29T04:39:05.552Z,31.00
2023-01-29T04:42:13.549Z,30.95
2023-01-29T04:44:58.273Z,34.03
2023-01-29T04:47:31.172Z,30.42
2023-01-29T04:50:22.675Z,36.03
2023-01-29T04:53:18.772Z,49.88
2023-01-29T04:55:50.330Z,35.33
2023-01-29T04:58:39.069Z,40.95
2023-01-29T05:01:12.741Z,41.28
2023-01-29T05:03:43.455Z,43.65
2023-01-29T05:06:11.942Z,42.20
2023-01-29T05:08:40.860Z,42.97
2023-01-29T05:11:08.473Z,40.53
2023-01-29T05:13:40.039Z,37.75
2023-01-29T05:16:19.108Z,41.60
2023-01-29T05:18:47.326Z,42.10
2023-01-29T05:21:14.486Z,43.03
2023-01-29T05:23:53.227Z,38.97
2023-01-29T05:26:40.185Z,36.75
2023-01-29T05:29:08.045Z,32.70
2023-01-29T05:31:35.077Z,36.92
2023-01-29T05:34:02.162Z,34.47
2023-01-29T05:36:29.421Z,36.22
2023-01-29T05:38:56.440Z,35.95
2023-01-29T05:41:23.463Z,36.72
2023-01-29T05:43:51.188Z,33.47
2023-01-29T05:46:18.930Z,31.23
2023-01-29T05:48:46.051Z,35.67
2023-01-29T05:51:13.052Z,29.95
2023-01-29T05:53:40.165Z,33.22
2023-01-29T05:56:07.522Z,31.77
2023-01-29T05:58:35.220Z,36.75
2023-01-29T06:01:16.639Z,31.48
2023-01-29T06:03:44.189Z,32.42
2023-01-29T06:06:12.074Z,36.55
2023-01-29T06:08:40.186Z,34.83
2023-01-29T06:11:10.888Z,34.28
2023-01-29T06:13:38.605Z,37.17
2023-01-29T06:16:09.856Z,31.10
2023-01-29T06:18:37.990Z,35.90
2023-01-29T06:21:08.520Z,50.53
2023-01-29T06:23:35.878Z,43.47
2023-01-29T06:26:11.381Z,50.88
2023-01-29T06:28:38.884Z,49.15
2023-01-29T06:31:26.478Z,52.15
2023-01-29T06:33:55.634Z,47.55
2023-01-29T06:36:23.200Z,50.50
2023-01-29T06:38:50.466Z,51.78
2023-01-29T06:41:20.623Z,46.45
2023-01-29T06:43:48.028Z,44.53
2023-01-29T06:46:15.346Z,42.75
2023-01-29T06:48:43.045Z,44.00
2023-01-29T06:51:11.456Z,43.38
2023-01-29T06:53:40.082Z,45.15
2023-01-29T06:56:07.909Z,44.92
2023-01-29T06:58:38.923Z,42.65
2023-01-29T07:01:08.770Z,44.13
2023-01-29T07:03:36.244Z,42.28
2023-01-29T07:06:04.434Z,42.75
2023-01-29T07:08:32.050Z,45.60
2023-01-29T07:11:01.081Z,44.83
2023-01-29T07:13:28.408Z,49.13
2023-01-29T07:16:02.613Z,46.15
2023-01-29T07:20:58.204Z,43.97
2023-01-29T07:23:25.794Z,48.63
2023-01-29T07:25:52.890Z,48.60
2023-01-29T07:28:23.039Z,47.60
2023-01-29T07:30:50.123Z,49.85
2023-01-29T07:33:17.133Z,45.10
2023-01-29T07:35:44.386Z,42.50
2023-01-29T07:38:11.921Z,46.35
2023-01-29T07:40:39.824Z,45.33
2023-01-29T07:43:09.645Z,45.55
2023-01-29T07:45:39.136Z,48.70
2023-01-29T07:48:09.523Z,48.85
2023-01-29T07:50:36.636Z,44.72
2023-01-29T07:53:04.183Z,46.33
2023-01-29T07:55:31.945Z,44.45
2023-01-29T07:58:04.012Z,56.17
2023-01-29T08:00:32.897Z,48.88
2023-01-29T08:03:09.998Z,52.65
2023-01-29T08:05:37.168Z,57.55
2023-01-29T08:08:07.477Z,56.65
2023-01-29T08:10:40.132Z,58.42
2023-01-29T08:13:08.491Z,61.97
2023-01-29T08:15:38.028Z,62.05
2023-01-29T08:18:06.673Z,60.75
2023-01-29T08:20:33.783Z,62.53
2023-01-29T08:23:08.441Z,64.38
2023-01-29T08:25:36.080Z,64.00
2023-01-29T08:28:04.569Z,64.75
2023-01-29T08:30:34.088Z,61.08
2023-01-29T08:33:01.739Z,59.45
2023-01-29T08:35:29.002Z,62.38
2023-01-29T08:38:01.813Z,60.72
2023-01-29T08:40:32.113Z,59.08
2023-01-29T08:43:02.152Z,61.22
2023-01-29T08:45:32.106Z,55.17
2023-01-29T08:47:59.128Z,56.08
2023-01-29T08:50:26.409Z,55.33
2023-01-29T08:52:59.304Z,56.05
2023-01-29T08:55:27.827Z,55.47
2023-01-29T08:57:57.412Z,57.15
2023-01-29T09:00:24.861Z,56.83
2023-01-29T09:02:52.014Z,57.13
2023-01-29T09:05:19.548Z,60.88
2023-01-29T09:07:46.678Z,61.60
2023-01-29T09:10:13.898Z,60.78
2023-01-29T09:12:40.982Z,71.95
2023-01-29T09:15:09.052Z,60.33
2023-01-29T09:17:36.223Z,63.10
2023-01-29T09:20:06.256Z,64.63
2023-01-29T09:22:34.062Z,60.17
2023-01-29T09:25:01.118Z,63.25
2023-01-29T09:27:28.563Z,56.67
2023-01-29T09:29:55.559Z,61.63
2023-01-29T09:32:49.715Z,64.78
2023-01-29T09:35:10.013Z,58.55
2023-01-29T09:37:37.545Z,58.33
2023-01-29T09:40:05.554Z,58.00
2023-01-29T09:42:48.628Z,54.45
2023-01-29T09:45:24.884Z,56.58
2023-01-29T09:47:53.870Z,51.70
2023-01-29T09:50:29.745Z,60.75
2023-01-29T09:53:22.257Z,57.40
2023-01-29T09:55:54.510Z,54.90
2023-01-29T09:58:34.489Z,56.97
2023-01-29T10:01:41.108Z,52.83
2023-01-29T10:04:51.343Z,54.58
2023-01-29T10:08:18.404Z,52.35
2023-01-29T10:10:52.208Z,55.85
2023-01-29T10:13:24.945Z,54.35
2023-01-29T10:16:22.271Z,55.53
2023-01-29T10:18:49.307Z,51.90
2023-01-29T10:21:47.128Z,60.22
2023-01-29T10:24:29.045Z,61.22
2023-01-29T10:26:56.359Z,55.35
2023-01-29T10:29:25.316Z,60.72
2023-01-29T10:32:06.034Z,54.60
2023-01-29T10:34:44.303Z,58.22
2023-01-29T10:37:42.415Z,54.72
2023-01-29T10:40:21.853Z,58.13
2023-01-29T10:43:12.999Z,57.17
2023-01-29T10:46:03.220Z,54.15
2023-01-29T10:48:58.952Z,58.97
2023-01-29T10:51:56.832Z,48.63
2023-01-29T10:54:54.688Z,79.60
2023-01-29T10:57:56.555Z,63.72
2023-01-29T11:00:30.536Z,52.97
2023-01-29T11:03:28.652Z,69.57
2023-01-29T11:06:23.826Z,67.55
2023-01-29T11:09:11.576Z,59.97
2023-01-29T11:11:52.617Z,47.20
2023-01-29T11:14:27.374Z,43.58
2023-01-29T11:16:54.391Z,43.35
2023-01-29T11:19:43.901Z,42.15
2023-01-29T11:22:29.439Z,38.90
2023-01-29T11:25:21.691Z,41.03
2023-01-29T11:28:02.154Z,51.70
2023-01-29T11:30:38.615Z,112.47
2023-01-29T11:33:05.571Z,46.03
2023-01-29T11:35:33.577Z,40.90
2023-01-29T11:38:29.867Z,40.95
2023-01-29T11:41:16.795Z,34.95
2023-01-29T11:43:43.805Z,38.53
2023-01-29T11:46:16.134Z,41.95
2023-01-29T11:48:47.986Z,37.88
2023-01-29T11:51:29.105Z,35.58
2023-01-29T11:54:01.168Z,38.05
2023-01-29T11:56:45.714Z,35.05
2023-01-29T11:59:50.293Z,35.63
2023-01-29T12:02:37.038Z,36.00
2023-01-29T12:05:20.184Z,35.13
2023-01-29T12:07:50.765Z,37.33
2023-01-29T12:10:33.665Z,36.00
2023-01-29T12:13:09.565Z,33.15
2023-01-29T12:15:40.672Z,33.50
2023-01-29T12:18:30.535Z,36.28
2023-01-29T12:21:47.499Z,34.47
2023-01-29T12:24:44.754Z,31.85
2023-01-29T12:27:38.292Z,31.23
2023-01-29T12:30:26.199Z,31.75
2023-01-29T12:33:05.934Z,33.58
2023-01-29T12:35:47.678Z,33.08
2023-01-29T12:38:22.373Z,31.42
2023-01-29T12:41:08.017Z,35.67
2023-01-29T12:44:43.544Z,29.40
2023-01-29T12:47:47.180Z,32.28
2023-01-29T12:50:26.422Z,31.65
2023-01-29T12:53:00.828Z,31.23
2023-01-29T12:55:45.370Z,28.42
2023-01-29T13:01:17.836Z,27.25
2023-01-29T13:04:01.473Z,26.98
2023-01-29T13:06:44.524Z,33.67
2023-01-29T13:09:24.816Z,36.13
2023-01-29T13:12:07.852Z,35.03
2023-01-29T13:15:04.149Z,29.95
2023-01-29T13:17:42.359Z,31.00
2023-01-29T13:20:24.635Z,33.03
2023-01-29T13:22:56.654Z,29.52
2023-01-29T13:25:23.802Z,25.05
2023-01-29T13:27:51.629Z,27.42
2023-01-29T13:30:34.307Z,27.10
2023-01-29T13:33:11.394Z,27.85
2023-01-29T13:35:43.510Z,31.23
2023-01-29T13:38:28.693Z,25.27
2023-01-29T13:41:04.860Z,23.13
2023-01-29T13:43:41.827Z,18.02
2023-01-29T13:46:21.454Z,21.23
2023-01-29T13:48:51.788Z,20.40
2023-01-29T13:51:23.046Z,23.77
2023-01-29T13:53:57.342Z,21.80
2023-01-29T13:59:05.373Z,30.93
2023-01-29T14:01:47.588Z,28.38
2023-01-29T14:04:31.335Z,24.25
2023-01-29T14:07:06.605Z,18.67
2023-01-29T14:09:36.923Z,27.33
2023-01-29T14:12:24.519Z,23.85
2023-01-29T14:14:57.251Z,24.15
2023-01-29T14:17:26.738Z,23.33
2023-01-29T14:20:20.383Z,26.52
2023-01-29T14:22:59.727Z,21.70
2023-01-29T14:25:34.130Z,20.40
2023-01-29T14:28:03.866Z,20.63
2023-01-29T14:30:34.825Z,21.10
2023-01-29T14:33:03.291Z,26.48
2023-01-29T14:35:34.204Z,22.30
2023-01-29T14:38:05.937Z,22.65
2023-01-29T14:40:37.062Z,23.88
2023-01-29T14:43:19.915Z,38.75
2023-01-29T14:45:49.478Z,25.00
2023-01-29T14:48:37.251Z,24.73
2023-01-29T14:51:14.911Z,28.80
2023-01-29T14:54:16.716Z,24.73
2023-01-29T14:57:02.446Z,28.25
2023-01-29T14:59:37.475Z,26.48
2023-01-29T15:02:19.032Z,22.38
2023-01-29T15:04:55.412Z,30.45
2023-01-29T15:07:34.922Z,27.13
2023-01-29T15:10:35.851Z,27.88
2023-01-29T15:13:16.051Z,27.20
2023-01-29T15:16:15.109Z,26.17
2023-01-29T15:18:44.077Z,21.15
2023-01-29T15:21:19.081Z,25.90
2023-01-29T15:23:50.395Z,23.13
2023-01-29T15:26:27.247Z,28.83
2023-01-29T15:29:04.954Z,28.02
2023-01-29T15:31:32.608Z,24.23
2023-01-29T15:34:06.601Z,27.33
2023-01-29T15:36:34.125Z,27.20
2023-01-29T15:39:13.397Z,26.92
2023-01-29T15:41:40.541Z,28.42
2023-01-29T15:44:19.015Z,33.05
2023-01-29T15:46:53.160Z,30.70
2023-01-29T15:52:05.858Z,26.77
2023-01-29T15:54:35.110Z,29.35
2023-01-29T15:57:03.836Z,29.15
2023-01-29T15:59:44.804Z,30.15
2023-01-29T16:02:40.074Z,30.30
2023-01-29T16:05:16.164Z,30.27
2023-01-29T16:07:45.581Z,48.80
2023-01-29T16:10:23.026Z,33.05
2023-01-29T16:12:51.734Z,32.80
2023-01-29T16:15:30.582Z,35.00
2023-01-29T16:18:00.116Z,33.10
2023-01-29T16:20:45.367Z,30.75
2023-01-29T16:23:24.840Z,31.20
2023-01-29T16:25:52.111Z,31.75
2023-01-29T16:28:20.065Z,36.45
2023-01-29T16:30:47.472Z,36.58
2023-01-29T16:33:17.279Z,36.05
2023-01-29T16:35:51.947Z,29.75
2023-01-29T16:38:32.574Z,32.67
2023-01-29T16:41:31.034Z,33.42
2023-01-29T16:44:04.592Z,38.63
2023-01-29T16:46:46.592Z,37.58
2023-01-29T16:49:28.549Z,32.40
2023-01-29T16:51:58.491Z,33.10
2023-01-29T16:54:27.577Z,35.45
2023-01-29T16:57:02.081Z,36.67
2023-01-29T16:59:38.553Z,41.75
2023-01-29T17:02:33.391Z,42.97
2023-01-29T17:05:06.981Z,64.07
2023-01-29T17:07:37.339Z,55.65
2023-01-29T17:10:07.284Z,46.60
2023-01-29T17:12:35.121Z,40.90
2023-01-29T17:15:33.008Z,38.55
2023-01-29T17:18:00.588Z,38.33
2023-01-29T17:20:27.975Z,36.58
2023-01-29T17:22:55.142Z,35.75
2023-01-29T17:25:22.241Z,36.30
2023-01-29T17:27:52.210Z,36.83
2023-01-29T17:30:22.707Z,37.30
2023-01-29T17:32:49.806Z,35.75
2023-01-29T17:35:18.157Z,34.67
2023-01-29T17:37:45.525Z,37.83
2023-01-29T17:40:34.527Z,38.65
2023-01-29T17:43:01.501Z,35.05
2023-01-29T17:45:28.993Z,32.70
2023-01-29T17:47:56.160Z,33.33
2023-01-29T17:50:28.070Z,35.65
2023-01-29T17:52:55.123Z,36.17
2023-01-29T17:55:22.110Z,34.45
2023-01-29T17:57:49.288Z,35.70
2023-01-29T18:00:21.327Z,38.70
2023-01-29T18:02:49.049Z,35.92
2023-01-29T18:05:18.054Z,37.67
2023-01-29T18:07:47.267Z,33.28
2023-01-29T18:10:19.992Z,34.78
2023-01-29T18:12:47.457Z,32.47
2023-01-29T18:15:14.923Z,36.75
2023-01-29T18:17:42.658Z,37.00
2023-01-29T18:20:28.320Z,33.65
2023-01-29T18:22:55.326Z,37.58
2023-01-29T18:25:24.168Z,33.50
2023-01-29T18:27:51.866Z,33.70
2023-01-29T18:30:18.806Z,40.05
2023-01-29T18:32:47.486Z,33.67
2023-01-29T18:35:15.161Z,33.92
2023-01-29T18:37:42.362Z,31.17
2023-01-29T18:40:17.260Z,39.13
2023-01-29T18:42:46.215Z,46.05
2023-01-29T18:45:15.543Z,39.00
2023-01-29T18:47:42.775Z,38.22
2023-01-29T18:50:11.243Z,37.88
2023-01-29T18:52:38.231Z,35.10
2023-01-29T18:55:05.767Z,40.95
2023-01-29T18:58:27.974Z,39.63
2023-01-29T19:00:21.910Z,43.13
2023-01-29T19:02:49.271Z,37.80
2023-01-29T19:05:19.361Z,40.00
2023-01-29T19:07:46.750Z,37.60
2023-01-29T19:10:16.859Z,41.92
2023-01-29T19:12:44.362Z,46.88
2023-01-29T19:15:12.094Z,42.45
2023-01-29T19:17:39.327Z,42.67
2023-01-29T19:20:07.644Z,42.90
2023-01-29T19:22:34.648Z,59.97
2023-01-29T19:25:01.647Z,54.60
2023-01-29T19:27:30.687Z,52.65
2023-01-29T19:29:59.504Z,56.40
2023-01-29T19:32:28.110Z,66.70
2023-01-29T19:34:55.321Z,62.47
2023-01-29T19:37:22.613Z,53.38
2023-01-29T19:39:49.934Z,48.15
2023-01-29T19:42:17.537Z,52.63
2023-01-29T19:44:45.453Z,55.75
2023-01-29T19:47:12.656Z,55.25
2023-01-29T19:49:40.561Z,49.20
2023-01-29T19:52:15.116Z,54.72
2023-01-29T19:54:46.670Z,57.72
2023-01-29T19:57:13.690Z,60.13
2023-01-29T19:59:40.790Z,61.05
2023-01-29T20:02:09.631Z,52.80
2023-01-29T20:04:36.687Z,53.20
2023-01-29T20:07:03.858Z,54.38
2023-01-29T20:09:30.902Z,54.65
2023-01-29T20:11:58.047Z,51.28
2023-01-29T20:14:25.124Z,54.33
2023-01-29T20:16:52.222Z,50.33
2023-01-29T20:19:20.575Z,45.15
2023-01-29T20:21:48.947Z,45.08
2023-01-29T20:24:16.102Z,50.28
2023-01-29T20:26:43.232Z,55.80
2023-01-29T20:29:10.265Z,51.47
2023-01-29T20:31:37.389Z,49.63
2023-01-29T20:34:04.333Z,48.88
2023-01-29T20:36:31.374Z,49.58
2023-01-29T20:38:58.478Z,47.65
2023-01-29T20:41:25.983Z,50.70
2023-01-29T20:43:53.122Z,46.65
2023-01-29T20:46:20.762Z,52.17
2023-01-29T20:48:49.130Z,45.42
2023-01-29T20:51:17.704Z,48.05
2023-01-29T20:53:47.347Z,54.40
2023-01-29T20:56:17.177Z,51.20
2023-01-29T20:58:46.676Z,51.35
2023-01-29T21:01:17.495Z,52.60
2023-01-29T21:03:46.441Z,48.58
2023-01-29T21:06:14.798Z,47.53
2023-01-29T21:08:42.298Z,50.10
2023-01-29T21:11:10.723Z,50.30
2023-01-29T21:13:38.295Z,54.17
2023-01-29T21:16:06.277Z,54.85
2023-01-29T21:18:33.232Z,62.75
2023-01-29T21:21:00.188Z,61.28
2023-01-29T21:23:27.156Z,63.30
2023-01-29T21:25:54.159Z,61.92
2023-01-29T21:28:21.140Z,50.10
2023-01-29T21:30:48.932Z,52.03
2023-01-29T21:33:16.374Z,52.33
2023-01-29T21:35:43.304Z,57.40
2023-01-29T21:38:10.290Z,60.75
2023-01-29T21:40:37.170Z,55.92
2023-01-29T21:43:13.261Z,57.33
2023-01-29T21:45:41.199Z,51.90
2023-01-29T21:48:10.515Z,60.05
2023-01-29T21:50:38.341Z,57.90
2023-01-29T21:53:05.235Z,57.53
2023-01-29T21:55:32.832Z,60.30
2023-01-29T21:58:00.467Z,63.17
2023-01-29T22:00:28.086Z,62.13
2023-01-29T22:02:55.101Z,59.10
2023-01-29T22:05:22.161Z,62.65
2023-01-29T22:07:49.724Z,62.65
2023-01-29T22:10:18.727Z,62.95
2023-01-29T22:12:46.170Z,76.32
2023-01-29T22:15:13.752Z,76.20
2023-01-29T22:17:42.795Z,77.05
2023-01-29T22:20:14.728Z,72.40
2023-01-29T22:22:42.180Z,68.97
2023-01-29T22:25:09.669Z,67.65
2023-01-29T22:27:36.719Z,68.68
2023-01-29T22:30:05.565Z,72.20
2023-01-29T22:32:32.835Z,64.72
2023-01-29T22:34:59.913Z,62.70
2023-01-29T22:37:26.877Z,63.28
2023-01-29T22:39:53.829Z,57.15
2023-01-29T22:42:21.090Z,58.58
2023-01-29T22:44:48.648Z,56.53
2023-01-29T22:47:16.101Z,51.10
2023-01-29T22:49:45.456Z,53.40
2023-01-29T22:52:12.398Z,48.08
2023-01-29T22:54:42.232Z,52.13
2023-01-29T22:57:14.840Z,52.45
2023-01-29T22:59:41.894Z,48.45
2023-01-29T23:02:09.660Z,48.45
2023-01-29T23:04:37.345Z,41.72
2023-01-29T23:07:04.620Z,49.40
2023-01-29T23:09:31.591Z,49.65
2023-01-29T23:11:58.494Z,47.08
2023-01-29T23:14:25.438Z,48.75
2023-01-29T23:16:52.315Z,44.38
2023-01-29T23:19:19.811Z,53.92
2023-01-29T23:21:46.698Z,47.85
2023-01-29T23:24:13.816Z,52.30
2023-01-29T23:26:59.229Z,50.33
2023-01-29T23:29:26.082Z,47.63
2023-01-29T23:31:53.176Z,50.05
2023-01-29T23:34:20.540Z,50.28
2023-01-29T23:36:47.719Z,53.80
2023-01-29T23:39:15.312Z,54.95
2023-01-29T23:41:42.557Z,50.85
2023-01-29T23:44:09.563Z,61.67
2023-01-29T23:46:36.664Z,53.25
2023-01-29T23:49:03.726Z,58.53
2023-01-29T23:51:30.635Z,57.17
2023-01-29T23:53:57.733Z,55.38
2023-01-29T23:56:25.255Z,48.75
2023-01-29T23:58:56.872Z,53.25
